Aviation Digital Data Service (ADDS)

Output produced by METARs form (1250 UTC 22 March 2019)
found at http://www.aviationweather.gov/metar/data/
 
Forecast for: ZSSS (SHANGHAI/HONGQIA, CN)
Text: TAF ZSSS 220911Z 2212/2312 36004MPS 6000 SCT040 TX16/2306Z TN07/2220Z
Forecast period: 1200 UTC 22 March 2019 to 1200 UTC 23 March 2019
Forecast type: FROM: standard forecast or significant change
Winds: from the N (360 degrees) at 9 MPH (8 knots; 4.1 m/s)
Visibility: 4 miles (6 km)
Ceiling: at least 12,000 feet AGL
Clouds: scattered clouds at 4000 feet AGL
Weather: no significant weather forecast for this period